sensor_id;sensor_type;location;lat;lon;timestamp;P1;durP1;ratioP1;P2;durP2;ratioP2
8139;SDS011;4111;50.972;7.072;2023-04-24T00:00:58;0.77;;;0.77;;
8139;SDS011;4111;50.972;7.072;2023-04-24T00:03:27;0.70;;;0.70;;
8139;SDS011;4111;50.972;7.072;2023-04-24T00:05:54;0.80;;;0.80;;
8139;SDS011;4111;50.972;7.072;2023-04-24T00:08:21;1.07;;;0.80;;
8139;SDS011;4111;50.972;7.072;2023-04-24T00:10:48;0.70;;;0.70;;
8139;SDS011;4111;50.972;7.072;2023-04-24T00:13:15;0.83;;;0.80;;
8139;SDS011;4111;50.972;7.072;2023-04-24T00:15:41;0.73;;;0.73;;
8139;SDS011;4111;50.972;7.072;2023-04-24T00:18:08;1.00;;;0.90;;
8139;SDS011;4111;50.972;7.072;2023-04-24T00:20:34;1.87;;;0.87;;
8139;SDS011;4111;50.972;7.072;2023-04-24T00:23:03;1.97;;;0.70;;
8139;SDS011;4111;50.972;7.072;2023-04-24T00:25:30;2.40;;;0.90;;
8139;SDS011;4111;50.972;7.072;2023-04-24T00:27:57;0.80;;;0.80;;
8139;SDS011;4111;50.972;7.072;2023-04-24T00:30:23;0.80;;;0.80;;
8139;SDS011;4111;50.972;7.072;2023-04-24T00:32:50;1.00;;;1.00;;
8139;SDS011;4111;50.972;7.072;2023-04-24T00:35:16;1.00;;;1.00;;
8139;SDS011;4111;50.972;7.072;2023-04-24T00:37:43;0.90;;;0.90;;
8139;SDS011;4111;50.972;7.072;2023-04-24T00:40:09;0.90;;;0.90;;
8139;SDS011;4111;50.972;7.072;2023-04-24T00:42:36;0.70;;;0.70;;
8139;SDS011;4111;50.972;7.072;2023-04-24T00:45:03;1.43;;;0.80;;
8139;SDS011;4111;50.972;7.072;2023-04-24T00:47:30;0.83;;;0.83;;
8139;SDS011;4111;50.972;7.072;2023-04-24T00:50:00;1.03;;;1.00;;
8139;SDS011;4111;50.972;7.072;2023-04-24T00:52:28;0.90;;;0.90;;
8139;SDS011;4111;50.972;7.072;2023-04-24T00:54:57;1.93;;;1.10;;
8139;SDS011;4111;50.972;7.072;2023-04-24T00:57:23;0.80;;;0.80;;
8139;SDS011;4111;50.972;7.072;2023-04-24T00:59:51;1.30;;;1.20;;
8139;SDS011;4111;50.972;7.072;2023-04-24T01:02:18;1.17;;;1.07;;
8139;SDS011;4111;50.972;7.072;2023-04-24T01:04:47;1.07;;;1.07;;
8139;SDS011;4111;50.972;7.072;2023-04-24T01:07:15;0.90;;;0.90;;
8139;SDS011;4111;50.972;7.072;2023-04-24T01:09:43;1.10;;;1.00;;
8139;SDS011;4111;50.972;7.072;2023-04-24T01:12:13;1.07;;;1.03;;
8139;SDS011;4111;50.972;7.072;2023-04-24T01:14:40;2.40;;;1.30;;
8139;SDS011;4111;50.972;7.072;2023-04-24T01:17:06;1.30;;;1.10;;
8139;SDS011;4111;50.972;7.072;2023-04-24T01:19:33;2.87;;;1.07;;
8139;SDS011;4111;50.972;7.072;2023-04-24T01:21:59;1.37;;;1.27;;
8139;SDS011;4111;50.972;7.072;2023-04-24T01:24:28;1.27;;;1.20;;
8139;SDS011;4111;50.972;7.072;2023-04-24T01:26:55;1.10;;;1.10;;
8139;SDS011;4111;50.972;7.072;2023-04-24T01:29:22;1.40;;;1.07;;
8139;SDS011;4111;50.972;7.072;2023-04-24T01:31:50;1.80;;;1.17;;
8139;SDS011;4111;50.972;7.072;2023-04-24T01:34:17;1.57;;;1.00;;
8139;SDS011;4111;50.972;7.072;2023-04-24T01:36:45;1.03;;;1.03;;
8139;SDS011;4111;50.972;7.072;2023-04-24T01:39:12;2.73;;;1.20;;
8139;SDS011;4111;50.972;7.072;2023-04-24T01:41:38;1.17;;;1.10;;
8139;SDS011;4111;50.972;7.072;2023-04-24T01:44:05;1.17;;;1.10;;
8139;SDS011;4111;50.972;7.072;2023-04-24T01:46:31;1.30;;;1.20;;
8139;SDS011;4111;50.972;7.072;2023-04-24T01:49:00;1.67;;;1.57;;
8139;SDS011;4111;50.972;7.072;2023-04-24T01:51:28;1.87;;;1.63;;
8139;SDS011;4111;50.972;7.072;2023-04-24T01:53:54;4.20;;;2.00;;
8139;SDS011;4111;50.972;7.072;2023-04-24T01:56:21;2.07;;;1.97;;
8139;SDS011;4111;50.972;7.072;2023-04-24T01:58:49;4.20;;;2.30;;
8139;SDS011;4111;50.972;7.072;2023-04-24T02:01:20;2.57;;;2.37;;
8139;SDS011;4111;50.972;7.072;2023-04-24T02:03:47;4.03;;;2.57;;
8139;SDS011;4111;50.972;7.072;2023-04-24T02:06:13;3.07;;;2.33;;
8139;SDS011;4111;50.972;7.072;2023-04-24T02:08:40;3.87;;;2.80;;
8139;SDS011;4111;50.972;7.072;2023-04-24T02:11:08;2.47;;;2.27;;
8139;SDS011;4111;50.972;7.072;2023-04-24T02:13:35;3.60;;;2.90;;
8139;SDS011;4111;50.972;7.072;2023-04-24T02:16:01;5.20;;;3.07;;
8139;SDS011;4111;50.972;7.072;2023-04-24T02:18:28;4.83;;;2.70;;
8139;SDS011;4111;50.972;7.072;2023-04-24T02:20:55;4.33;;;2.73;;
8139;SDS011;4111;50.972;7.072;2023-04-24T02:23:21;4.80;;;2.97;;
8139;SDS011;4111;50.972;7.072;2023-04-24T02:25:47;3.27;;;2.80;;
8139;SDS011;4111;50.972;7.072;2023-04-24T02:28:14;4.47;;;2.97;;
8139;SDS011;4111;50.972;7.072;2023-04-24T02:30:41;4.17;;;3.00;;
8139;SDS011;4111;50.972;7.072;2023-04-24T02:33:07;3.30;;;3.00;;
8139;SDS011;4111;50.972;7.072;2023-04-24T02:35:33;3.80;;;2.80;;
8139;SDS011;4111;50.972;7.072;2023-04-24T02:38:00;3.30;;;2.83;;
8139;SDS011;4111;50.972;7.072;2023-04-24T02:40:27;3.37;;;3.17;;
8139;SDS011;4111;50.972;7.072;2023-04-24T02:42:53;2.87;;;2.73;;
8139;SDS011;4111;50.972;7.072;2023-04-24T02:45:19;3.73;;;3.20;;
8139;SDS011;4111;50.972;7.072;2023-04-24T02:47:46;3.50;;;3.20;;
8139;SDS011;4111;50.972;7.072;2023-04-24T02:50:12;4.97;;;3.27;;
8139;SDS011;4111;50.972;7.072;2023-04-24T02:52:39;3.87;;;3.50;;
8139;SDS011;4111;50.972;7.072;2023-04-24T02:55:05;3.33;;;3.03;;
8139;SDS011;4111;50.972;7.072;2023-04-24T02:57:34;4.70;;;3.10;;
8139;SDS011;4111;50.972;7.072;2023-04-24T03:00:00;4.80;;;3.60;;
8139;SDS011;4111;50.972;7.072;2023-04-24T03:02:26;4.67;;;3.77;;
8139;SDS011;4111;50.972;7.072;2023-04-24T03:04:53;3.50;;;3.20;;
8139;SDS011;4111;50.972;7.072;2023-04-24T03:07:19;5.63;;;3.77;;
8139;SDS011;4111;50.972;7.072;2023-04-24T03:09:46;5.83;;;3.87;;
8139;SDS011;4111;50.972;7.072;2023-04-24T03:12:14;5.67;;;4.43;;
8139;SDS011;4111;50.972;7.072;2023-04-24T03:14:40;5.00;;;4.50;;
8139;SDS011;4111;50.972;7.072;2023-04-24T03:17:06;5.63;;;4.00;;
8139;SDS011;4111;50.972;7.072;2023-04-24T03:19:33;5.47;;;4.33;;
8139;SDS011;4111;50.972;7.072;2023-04-24T03:22:01;5.20;;;4.40;;
8139;SDS011;4111;50.972;7.072;2023-04-24T03:24:28;5.47;;;4.33;;
8139;SDS011;4111;50.972;7.072;2023-04-24T03:26:54;6.10;;;4.20;;
8139;SDS011;4111;50.972;7.072;2023-04-24T03:29:22;5.43;;;4.03;;
8139;SDS011;4111;50.972;7.072;2023-04-24T03:31:49;4.87;;;4.43;;
8139;SDS011;4111;50.972;7.072;2023-04-24T03:34:15;4.37;;;3.70;;
8139;SDS011;4111;50.972;7.072;2023-04-24T03:36:42;5.40;;;3.80;;
8139;SDS011;4111;50.972;7.072;2023-04-24T03:39:08;7.50;;;3.93;;
8139;SDS011;4111;50.972;7.072;2023-04-24T03:41:35;6.53;;;4.10;;
8139;SDS011;4111;50.972;7.072;2023-04-24T03:44:01;4.20;;;3.80;;
8139;SDS011;4111;50.972;7.072;2023-04-24T03:46:28;4.30;;;3.90;;
8139;SDS011;4111;50.972;7.072;2023-04-24T03:48:54;5.83;;;4.17;;
8139;SDS011;4111;50.972;7.072;2023-04-24T03:51:21;4.37;;;3.97;;
8139;SDS011;4111;50.972;7.072;2023-04-24T03:53:48;4.20;;;3.70;;
8139;SDS011;4111;50.972;7.072;2023-04-24T03:56:15;3.97;;;3.60;;
8139;SDS011;4111;50.972;7.072;2023-04-24T03:58:41;5.33;;;4.13;;
8139;SDS011;4111;50.972;7.072;2023-04-24T04:01:08;4.90;;;3.93;;
8139;SDS011;4111;50.972;7.072;2023-04-24T04:03:34;7.00;;;3.83;;
8139;SDS011;4111;50.972;7.072;2023-04-24T04:06:01;4.53;;;4.13;;
8139;SDS011;4111;50.972;7.072;2023-04-24T04:08:27;8.13;;;4.23;;
8139;SDS011;4111;50.972;7.072;2023-04-24T04:10:54;4.83;;;3.73;;
8139;SDS011;4111;50.972;7.072;2023-04-24T04:13:20;7.77;;;4.03;;
8139;SDS011;4111;50.972;7.072;2023-04-24T04:15:47;4.73;;;4.17;;
8139;SDS011;4111;50.972;7.072;2023-04-24T04:18:13;4.97;;;4.37;;
8139;SDS011;4111;50.972;7.072;2023-04-24T04:20:40;4.40;;;4.00;;
8139;SDS011;4111;50.972;7.072;2023-04-24T04:23:06;4.60;;;4.23;;
8139;SDS011;4111;50.972;7.072;2023-04-24T04:25:33;4.43;;;4.00;;
8139;SDS011;4111;50.972;7.072;2023-04-24T04:28:00;6.83;;;4.07;;
8139;SDS011;4111;50.972;7.072;2023-04-24T04:30:28;6.23;;;4.27;;
8139;SDS011;4111;50.972;7.072;2023-04-24T04:32:55;4.10;;;3.80;;
8139;SDS011;4111;50.972;7.072;2023-04-24T04:35:22;4.00;;;3.67;;
8139;SDS011;4111;50.972;7.072;2023-04-24T04:37:49;5.33;;;4.00;;
8139;SDS011;4111;50.972;7.072;2023-04-24T04:40:16;7.03;;;4.20;;
8139;SDS011;4111;50.972;7.072;2023-04-24T04:42:43;4.43;;;4.03;;
8139;SDS011;4111;50.972;7.072;2023-04-24T04:45:12;4.90;;;4.13;;
8139;SDS011;4111;50.972;7.072;2023-04-24T04:47:38;4.30;;;3.70;;
8139;SDS011;4111;50.972;7.072;2023-04-24T04:50:06;4.00;;;3.63;;
8139;SDS011;4111;50.972;7.072;2023-04-24T04:52:32;6.23;;;4.30;;
8139;SDS011;4111;50.972;7.072;2023-04-24T04:54:59;5.47;;;3.73;;
8139;SDS011;4111;50.972;7.072;2023-04-24T04:57:25;4.73;;;3.97;;
8139;SDS011;4111;50.972;7.072;2023-04-24T04:59:52;4.87;;;3.70;;
8139;SDS011;4111;50.972;7.072;2023-04-24T05:02:18;4.77;;;4.23;;
8139;SDS011;4111;50.972;7.072;2023-04-24T05:04:45;4.73;;;4.03;;
8139;SDS011;4111;50.972;7.072;2023-04-24T05:07:12;5.73;;;4.00;;
8139;SDS011;4111;50.972;7.072;2023-04-24T05:09:38;5.37;;;3.60;;
8139;SDS011;4111;50.972;7.072;2023-04-24T05:12:05;6.13;;;3.70;;
8139;SDS011;4111;50.972;7.072;2023-04-24T05:14:31;4.83;;;3.87;;
8139;SDS011;4111;50.972;7.072;2023-04-24T05:16:58;4.00;;;3.60;;
8139;SDS011;4111;50.972;7.072;2023-04-24T05:19:24;4.03;;;3.70;;
8139;SDS011;4111;50.972;7.072;2023-04-24T05:21:51;4.30;;;3.90;;
8139;SDS011;4111;50.972;7.072;2023-04-24T05:24:17;4.20;;;3.80;;
8139;SDS011;4111;50.972;7.072;2023-04-24T05:26:43;4.37;;;3.93;;
8139;SDS011;4111;50.972;7.072;2023-04-24T05:29:10;4.27;;;3.87;;
8139;SDS011;4111;50.972;7.072;2023-04-24T05:31:37;15.73;;;5.10;;
8139;SDS011;4111;50.972;7.072;2023-04-24T05:34:04;4.73;;;4.37;;
8139;SDS011;4111;50.972;7.072;2023-04-24T05:36:31;7.07;;;4.50;;
8139;SDS011;4111;50.972;7.072;2023-04-24T05:38:57;5.63;;;4.63;;
8139;SDS011;4111;50.972;7.072;2023-04-24T05:41:24;5.47;;;3.83;;
8139;SDS011;4111;50.972;7.072;2023-04-24T05:43:51;4.67;;;3.60;;
8139;SDS011;4111;50.972;7.072;2023-04-24T05:46:17;5.17;;;4.37;;
8139;SDS011;4111;50.972;7.072;2023-04-24T05:48:43;5.97;;;4.10;;
8139;SDS011;4111;50.972;7.072;2023-04-24T05:51:10;9.80;;;4.43;;
8139;SDS011;4111;50.972;7.072;2023-04-24T05:53:36;4.57;;;4.17;;
8139;SDS011;4111;50.972;7.072;2023-04-24T05:56:03;4.73;;;4.33;;
8139;SDS011;4111;50.972;7.072;2023-04-24T05:58:29;4.67;;;4.27;;
8139;SDS011;4111;50.972;7.072;2023-04-24T06:00:56;5.47;;;4.90;;
8139;SDS011;4111;50.972;7.072;2023-04-24T06:03:24;5.07;;;4.67;;
8139;SDS011;4111;50.972;7.072;2023-04-24T06:05:51;5.43;;;4.93;;
8139;SDS011;4111;50.972;7.072;2023-04-24T06:08:17;6.60;;;5.33;;
8139;SDS011;4111;50.972;7.072;2023-04-24T06:10:44;5.57;;;4.97;;
8139;SDS011;4111;50.972;7.072;2023-04-24T06:13:10;5.10;;;4.60;;
8139;SDS011;4111;50.972;7.072;2023-04-24T06:15:37;10.97;;;5.30;;
8139;SDS011;4111;50.972;7.072;2023-04-24T06:18:04;5.80;;;5.20;;
8139;SDS011;4111;50.972;7.072;2023-04-24T06:20:30;5.13;;;4.50;;
8139;SDS011;4111;50.972;7.072;2023-04-24T06:22:57;4.83;;;4.37;;
8139;SDS011;4111;50.972;7.072;2023-04-24T06:25:24;5.90;;;5.40;;
8139;SDS011;4111;50.972;7.072;2023-04-24T06:27:52;5.57;;;5.13;;
8139;SDS011;4111;50.972;7.072;2023-04-24T06:30:20;8.40;;;5.20;;
8139;SDS011;4111;50.972;7.072;2023-04-24T06:32:46;6.67;;;5.40;;
8139;SDS011;4111;50.972;7.072;2023-04-24T06:35:13;6.23;;;5.60;;
8139;SDS011;4111;50.972;7.072;2023-04-24T06:37:39;7.47;;;5.43;;
8139;SDS011;4111;50.972;7.072;2023-04-24T06:40:08;4.80;;;4.30;;
8139;SDS011;4111;50.972;7.072;2023-04-24T06:42:35;5.90;;;4.27;;
8139;SDS011;4111;50.972;7.072;2023-04-24T06:45:02;4.10;;;3.70;;
8139;SDS011;4111;50.972;7.072;2023-04-24T06:47:29;4.37;;;3.97;;
8139;SDS011;4111;50.972;7.072;2023-04-24T06:49:56;3.70;;;3.40;;
8139;SDS011;4111;50.972;7.072;2023-04-24T06:52:23;4.40;;;4.00;;
8139;SDS011;4111;50.972;7.072;2023-04-24T06:54:49;4.80;;;3.30;;
8139;SDS011;4111;50.972;7.072;2023-04-24T06:57:16;6.77;;;3.70;;
8139;SDS011;4111;50.972;7.072;2023-04-24T06:59:43;3.03;;;2.83;;
8139;SDS011;4111;50.972;7.072;2023-04-24T07:02:10;2.40;;;2.30;;
8139;SDS011;4111;50.972;7.072;2023-04-24T07:04:36;3.20;;;2.90;;
8139;SDS011;4111;50.972;7.072;2023-04-24T07:07:03;2.47;;;2.27;;
8139;SDS011;4111;50.972;7.072;2023-04-24T07:09:31;4.10;;;2.77;;
8139;SDS011;4111;50.972;7.072;2023-04-24T07:11:57;3.53;;;2.37;;
8139;SDS011;4111;50.972;7.072;2023-04-24T07:14:24;3.73;;;2.33;;
8139;SDS011;4111;50.972;7.072;2023-04-24T07:16:50;2.20;;;2.00;;
8139;SDS011;4111;50.972;7.072;2023-04-24T07:19:17;2.20;;;2.00;;
8139;SDS011;4111;50.972;7.072;2023-04-24T07:21:43;3.10;;;2.20;;
8139;SDS011;4111;50.972;7.072;2023-04-24T07:24:10;2.40;;;2.20;;
8139;SDS011;4111;50.972;7.072;2023-04-24T07:26:37;2.13;;;1.93;;
8139;SDS011;4111;50.972;7.072;2023-04-24T07:29:05;1.97;;;1.70;;
8139;SDS011;4111;50.972;7.072;2023-04-24T07:31:32;1.80;;;1.70;;
8139;SDS011;4111;50.972;7.072;2023-04-24T07:33:58;2.10;;;2.00;;
8139;SDS011;4111;50.972;7.072;2023-04-24T07:36:25;3.00;;;2.00;;
8139;SDS011;4111;50.972;7.072;2023-04-24T07:38:52;2.00;;;1.87;;
8139;SDS011;4111;50.972;7.072;2023-04-24T07:41:19;2.40;;;2.10;;
8139;SDS011;4111;50.972;7.072;2023-04-24T07:43:46;2.03;;;1.93;;
8139;SDS011;4111;50.972;7.072;2023-04-24T07:46:13;1.67;;;1.57;;
8139;SDS011;4111;50.972;7.072;2023-04-24T07:48:40;1.70;;;1.60;;
8139;SDS011;4111;50.972;7.072;2023-04-24T07:51:06;1.53;;;1.37;;
8139;SDS011;4111;50.972;7.072;2023-04-24T07:53:32;2.00;;;1.10;;
8139;SDS011;4111;50.972;7.072;2023-04-24T07:55:59;1.30;;;1.20;;
8139;SDS011;4111;50.972;7.072;2023-04-24T07:58:25;1.20;;;1.20;;
8139;SDS011;4111;50.972;7.072;2023-04-24T08:00:52;1.10;;;1.03;;
8139;SDS011;4111;50.972;7.072;2023-04-24T08:03:18;1.10;;;1.10;;
8139;SDS011;4111;50.972;7.072;2023-04-24T08:05:46;1.60;;;1.00;;
8139;SDS011;4111;50.972;7.072;2023-04-24T08:08:13;1.20;;;1.10;;
8139;SDS011;4111;50.972;7.072;2023-04-24T08:10:39;2.13;;;1.30;;
8139;SDS011;4111;50.972;7.072;2023-04-24T08:13:06;1.20;;;1.00;;
8139;SDS011;4111;50.972;7.072;2023-04-24T08:15:32;0.97;;;0.97;;
8139;SDS011;4111;50.972;7.072;2023-04-24T08:17:59;1.40;;;1.20;;
8139;SDS011;4111;50.972;7.072;2023-04-24T08:20:25;1.43;;;1.17;;
8139;SDS011;4111;50.972;7.072;2023-04-24T08:22:52;1.57;;;1.47;;
8139;SDS011;4111;50.972;7.072;2023-04-24T08:25:18;1.13;;;1.00;;
8139;SDS011;4111;50.972;7.072;2023-04-24T08:27:45;3.23;;;1.30;;
8139;SDS011;4111;50.972;7.072;2023-04-24T08:30:11;1.73;;;1.23;;
8139;SDS011;4111;50.972;7.072;2023-04-24T08:32:38;4.53;;;1.00;;
8139;SDS011;4111;50.972;7.072;2023-04-24T08:35:05;2.70;;;1.27;;
8139;SDS011;4111;50.972;7.072;2023-04-24T08:37:31;4.90;;;1.23;;
8139;SDS011;4111;50.972;7.072;2023-04-24T08:39:58;1.57;;;1.13;;
8139;SDS011;4111;50.972;7.072;2023-04-24T08:42:25;1.20;;;1.10;;
8139;SDS011;4111;50.972;7.072;2023-04-24T08:44:54;1.70;;;1.10;;
8139;SDS011;4111;50.972;7.072;2023-04-24T08:47:21;1.20;;;1.10;;
8139;SDS011;4111;50.972;7.072;2023-04-24T08:49:49;0.90;;;0.90;;
8139;SDS011;4111;50.972;7.072;2023-04-24T08:52:16;1.47;;;1.30;;
8139;SDS011;4111;50.972;7.072;2023-04-24T08:54:44;2.20;;;1.20;;
8139;SDS011;4111;50.972;7.072;2023-04-24T08:57:12;2.80;;;1.70;;
8139;SDS011;4111;50.972;7.072;2023-04-24T08:59:40;1.37;;;1.27;;
8139;SDS011;4111;50.972;7.072;2023-04-24T09:02:09;1.70;;;1.60;;
8139;SDS011;4111;50.972;7.072;2023-04-24T09:04:38;1.80;;;1.70;;
8139;SDS011;4111;50.972;7.072;2023-04-24T09:07:06;3.83;;;1.70;;
8139;SDS011;4111;50.972;7.072;2023-04-24T09:09:36;1.63;;;1.53;;
8139;SDS011;4111;50.972;7.072;2023-04-24T09:12:05;1.83;;;1.73;;
8139;SDS011;4111;50.972;7.072;2023-04-24T09:14:31;4.20;;;1.77;;
8139;SDS011;4111;50.972;7.072;2023-04-24T09:16:59;2.67;;;1.93;;
8139;SDS011;4111;50.972;7.072;2023-04-24T09:19:25;2.90;;;2.60;;
8139;SDS011;4111;50.972;7.072;2023-04-24T09:21:52;3.00;;;2.80;;
8139;SDS011;4111;50.972;7.072;2023-04-24T09:24:20;2.37;;;2.17;;
8139;SDS011;4111;50.972;7.072;2023-04-24T09:26:56;3.30;;;3.00;;
8139;SDS011;4111;50.972;7.072;2023-04-24T09:29:24;5.43;;;3.13;;
8139;SDS011;4111;50.972;7.072;2023-04-24T09:31:51;4.57;;;3.47;;
8139;SDS011;4111;50.972;7.072;2023-04-24T09:34:21;5.63;;;3.60;;
8139;SDS011;4111;50.972;7.072;2023-04-24T09:36:49;3.97;;;3.53;;
8139;SDS011;4111;50.972;7.072;2023-04-24T09:39:17;4.13;;;3.47;;
8139;SDS011;4111;50.972;7.072;2023-04-24T09:41:50;4.20;;;3.73;;
8139;SDS011;4111;50.972;7.072;2023-04-24T09:44:19;4.50;;;3.93;;
8139;SDS011;4111;50.972;7.072;2023-04-24T09:46:49;4.47;;;4.07;;
8139;SDS011;4111;50.972;7.072;2023-04-24T09:49:27;4.73;;;4.17;;
8139;SDS011;4111;50.972;7.072;2023-04-24T09:52:06;6.63;;;4.80;;
8139;SDS011;4111;50.972;7.072;2023-04-24T09:54:36;6.57;;;4.10;;
8139;SDS011;4111;50.972;7.072;2023-04-24T09:57:04;5.80;;;4.33;;
8139;SDS011;4111;50.972;7.072;2023-04-24T09:59:33;8.70;;;4.80;;
8139;SDS011;4111;50.972;7.072;2023-04-24T10:02:02;8.97;;;5.10;;
8139;SDS011;4111;50.972;7.072;2023-04-24T10:04:29;7.77;;;5.30;;
8139;SDS011;4111;50.972;7.072;2023-04-24T10:06:56;7.87;;;5.47;;
8139;SDS011;4111;50.972;7.072;2023-04-24T10:09:24;7.63;;;6.13;;
8139;SDS011;4111;50.972;7.072;2023-04-24T10:11:53;8.83;;;5.83;;
8139;SDS011;4111;50.972;7.072;2023-04-24T10:14:21;7.87;;;5.67;;
8139;SDS011;4111;50.972;7.072;2023-04-24T10:16:50;9.07;;;5.70;;
8139;SDS011;4111;50.972;7.072;2023-04-24T10:19:19;7.67;;;5.40;;
8139;SDS011;4111;50.972;7.072;2023-04-24T10:21:46;8.50;;;5.90;;
8139;SDS011;4111;50.972;7.072;2023-04-24T10:24:17;7.20;;;5.80;;
8139;SDS011;4111;50.972;7.072;2023-04-24T10:26:46;11.73;;;5.53;;
8139;SDS011;4111;50.972;7.072;2023-04-24T10:29:17;6.77;;;5.00;;
8139;SDS011;4111;50.972;7.072;2023-04-24T10:31:44;9.57;;;5.27;;
8139;SDS011;4111;50.972;7.072;2023-04-24T10:34:12;12.00;;;4.83;;
8139;SDS011;4111;50.972;7.072;2023-04-24T10:36:41;8.73;;;5.00;;
8139;SDS011;4111;50.972;7.072;2023-04-24T10:39:12;7.63;;;4.40;;
8139;SDS011;4111;50.972;7.072;2023-04-24T10:41:43;9.33;;;4.87;;
8139;SDS011;4111;50.972;7.072;2023-04-24T10:44:13;8.70;;;4.80;;
8139;SDS011;4111;50.972;7.072;2023-04-24T10:46:46;8.93;;;4.60;;
8139;SDS011;4111;50.972;7.072;2023-04-24T10:49:30;9.00;;;4.50;;
8139;SDS011;4111;50.972;7.072;2023-04-24T10:52:01;7.33;;;4.50;;
8139;SDS011;4111;50.972;7.072;2023-04-24T10:54:35;8.07;;;4.40;;
8139;SDS011;4111;50.972;7.072;2023-04-24T10:59:49;9.00;;;4.30;;
8139;SDS011;4111;50.972;7.072;2023-04-24T11:02:17;9.33;;;4.83;;
8139;SDS011;4111;50.972;7.072;2023-04-24T11:04:44;9.33;;;4.03;;
8139;SDS011;4111;50.972;7.072;2023-04-24T11:07:12;7.87;;;4.00;;
8139;SDS011;4111;50.972;7.072;2023-04-24T11:09:38;7.30;;;3.80;;
8139;SDS011;4111;50.972;7.072;2023-04-24T11:12:10;5.00;;;3.90;;
8139;SDS011;4111;50.972;7.072;2023-04-24T11:17:30;6.47;;;2.80;;
8139;SDS011;4111;50.972;7.072;2023-04-24T11:20:02;5.63;;;3.20;;
8139;SDS011;4111;50.972;7.072;2023-04-24T11:22:55;5.27;;;3.03;;
8139;SDS011;4111;50.972;7.072;2023-04-24T11:25:23;8.43;;;3.00;;
8139;SDS011;4111;50.972;7.072;2023-04-24T11:27:51;9.10;;;3.03;;
8139;SDS011;4111;50.972;7.072;2023-04-24T11:30:29;6.27;;;3.07;;
8139;SDS011;4111;50.972;7.072;2023-04-24T11:33:02;10.03;;;3.20;;
8139;SDS011;4111;50.972;7.072;2023-04-24T11:35:30;9.77;;;3.40;;
8139;SDS011;4111;50.972;7.072;2023-04-24T11:38:03;12.20;;;3.20;;
8139;SDS011;4111;50.972;7.072;2023-04-24T11:40:34;6.40;;;3.57;;
8139;SDS011;4111;50.972;7.072;2023-04-24T11:43:00;3.80;;;3.23;;
8139;SDS011;4111;50.972;7.072;2023-04-24T11:45:33;9.87;;;3.93;;
8139;SDS011;4111;50.972;7.072;2023-04-24T11:47:59;9.00;;;3.63;;
8139;SDS011;4111;50.972;7.072;2023-04-24T11:50:26;8.67;;;3.77;;
8139;SDS011;4111;50.972;7.072;2023-04-24T11:52:54;6.83;;;3.80;;
8139;SDS011;4111;50.972;7.072;2023-04-24T11:57:49;12.00;;;4.47;;
8139;SDS011;4111;50.972;7.072;2023-04-24T12:00:18;7.57;;;3.50;;
8139;SDS011;4111;50.972;7.072;2023-04-24T12:02:47;9.43;;;3.67;;
8139;SDS011;4111;50.972;7.072;2023-04-24T12:07:48;6.70;;;3.67;;
8139;SDS011;4111;50.972;7.072;2023-04-24T12:10:19;7.13;;;4.10;;
8139;SDS011;4111;50.972;7.072;2023-04-24T12:12:47;7.93;;;4.00;;
8139;SDS011;4111;50.972;7.072;2023-04-24T12:15:16;7.27;;;4.60;;
8139;SDS011;4111;50.972;7.072;2023-04-24T12:17:45;11.03;;;4.60;;
8139;SDS011;4111;50.972;7.072;2023-04-24T12:20:12;8.60;;;4.90;;
8139;SDS011;4111;50.972;7.072;2023-04-24T12:22:46;11.13;;;5.30;;
8139;SDS011;4111;50.972;7.072;2023-04-24T12:25:19;7.93;;;4.70;;
8139;SDS011;4111;50.972;7.072;2023-04-24T12:27:52;8.83;;;4.90;;
8139;SDS011;4111;50.972;7.072;2023-04-24T12:30:41;8.90;;;5.30;;
8139;SDS011;4111;50.972;7.072;2023-04-24T12:33:10;7.47;;;4.73;;
8139;SDS011;4111;50.972;7.072;2023-04-24T12:35:39;12.57;;;5.50;;
8139;SDS011;4111;50.972;7.072;2023-04-24T12:38:08;10.20;;;5.10;;
8139;SDS011;4111;50.972;7.072;2023-04-24T12:40:36;11.10;;;4.97;;
8139;SDS011;4111;50.972;7.072;2023-04-24T12:43:02;9.70;;;4.37;;
8139;SDS011;4111;50.972;7.072;2023-04-24T12:45:48;7.47;;;4.27;;
8139;SDS011;4111;50.972;7.072;2023-04-24T12:48:14;7.83;;;4.03;;
8139;SDS011;4111;50.972;7.072;2023-04-24T12:50:41;4.87;;;3.30;;
8139;SDS011;4111;50.972;7.072;2023-04-24T12:53:11;6.70;;;3.57;;
8139;SDS011;4111;50.972;7.072;2023-04-24T12:55:38;8.03;;;4.13;;
8139;SDS011;4111;50.972;7.072;2023-04-24T12:58:04;10.27;;;4.03;;
8139;SDS011;4111;50.972;7.072;2023-04-24T13:00:32;12.80;;;3.70;;
8139;SDS011;4111;50.972;7.072;2023-04-24T13:02:58;9.87;;;4.47;;
8139;SDS011;4111;50.972;7.072;2023-04-24T13:05:25;5.97;;;3.73;;
8139;SDS011;4111;50.972;7.072;2023-04-24T13:07:52;8.70;;;4.00;;
8139;SDS011;4111;50.972;7.072;2023-04-24T13:10:18;6.90;;;3.70;;
8139;SDS011;4111;50.972;7.072;2023-04-24T13:12:45;7.87;;;3.77;;
8139;SDS011;4111;50.972;7.072;2023-04-24T13:15:12;6.03;;;3.50;;
8139;SDS011;4111;50.972;7.072;2023-04-24T13:17:39;12.83;;;3.67;;
8139;SDS011;4111;50.972;7.072;2023-04-24T13:20:06;7.53;;;3.27;;
8139;SDS011;4111;50.972;7.072;2023-04-24T13:22:33;8.53;;;3.33;;
8139;SDS011;4111;50.972;7.072;2023-04-24T13:24:59;8.57;;;3.80;;
8139;SDS011;4111;50.972;7.072;2023-04-24T13:27:27;7.83;;;3.57;;
8139;SDS011;4111;50.972;7.072;2023-04-24T13:29:53;6.63;;;3.63;;
8139;SDS011;4111;50.972;7.072;2023-04-24T13:32:20;6.90;;;3.70;;
8139;SDS011;4111;50.972;7.072;2023-04-24T13:34:46;5.13;;;3.40;;
8139;SDS011;4111;50.972;7.072;2023-04-24T13:37:13;4.23;;;3.50;;
8139;SDS011;4111;50.972;7.072;2023-04-24T13:39:39;8.40;;;3.60;;
8139;SDS011;4111;50.972;7.072;2023-04-24T13:42:07;8.47;;;4.07;;
8139;SDS011;4111;50.972;7.072;2023-04-24T13:44:34;8.20;;;3.30;;
8139;SDS011;4111;50.972;7.072;2023-04-24T13:47:01;7.10;;;3.20;;
8139;SDS011;4111;50.972;7.072;2023-04-24T13:49:27;10.27;;;2.87;;
8139;SDS011;4111;50.972;7.072;2023-04-24T13:51:54;4.63;;;3.10;;
8139;SDS011;4111;50.972;7.072;2023-04-24T13:54:21;10.23;;;3.20;;
8139;SDS011;4111;50.972;7.072;2023-04-24T13:56:49;7.73;;;3.30;;
8139;SDS011;4111;50.972;7.072;2023-04-24T13:59:16;6.57;;;3.27;;
8139;SDS011;4111;50.972;7.072;2023-04-24T14:01:43;5.53;;;2.90;;
8139;SDS011;4111;50.972;7.072;2023-04-24T14:04:11;3.40;;;2.57;;
8139;SDS011;4111;50.972;7.072;2023-04-24T14:06:38;3.83;;;2.67;;
8139;SDS011;4111;50.972;7.072;2023-04-24T14:09:05;6.60;;;2.93;;
8139;SDS011;4111;50.972;7.072;2023-04-24T14:11:33;7.13;;;3.67;;
8139;SDS011;4111;50.972;7.072;2023-04-24T14:14:00;5.00;;;2.80;;
8139;SDS011;4111;50.972;7.072;2023-04-24T14:16:27;4.33;;;2.83;;
8139;SDS011;4111;50.972;7.072;2023-04-24T14:18:54;5.97;;;2.90;;
8139;SDS011;4111;50.972;7.072;2023-04-24T14:21:21;8.83;;;3.17;;
8139;SDS011;4111;50.972;7.072;2023-04-24T14:23:47;7.80;;;2.97;;
8139;SDS011;4111;50.972;7.072;2023-04-24T14:26:14;6.60;;;3.10;;
8139;SDS011;4111;50.972;7.072;2023-04-24T14:28:40;3.87;;;2.57;;
8139;SDS011;4111;50.972;7.072;2023-04-24T14:31:06;5.83;;;3.33;;
8139;SDS011;4111;50.972;7.072;2023-04-24T14:33:34;4.30;;;3.00;;
8139;SDS011;4111;50.972;7.072;2023-04-24T14:36:00;6.10;;;3.23;;
8139;SDS011;4111;50.972;7.072;2023-04-24T14:38:28;7.10;;;3.20;;
8139;SDS011;4111;50.972;7.072;2023-04-24T14:40:55;5.00;;;3.10;;
8139;SDS011;4111;50.972;7.072;2023-04-24T14:43:30;5.10;;;3.47;;
8139;SDS011;4111;50.972;7.072;2023-04-24T14:45:56;4.40;;;3.03;;
8139;SDS011;4111;50.972;7.072;2023-04-24T14:48:23;9.03;;;3.10;;
8139;SDS011;4111;50.972;7.072;2023-04-24T14:50:49;3.93;;;2.87;;
8139;SDS011;4111;50.972;7.072;2023-04-24T14:53:16;6.60;;;3.30;;
8139;SDS011;4111;50.972;7.072;2023-04-24T14:55:42;9.40;;;3.30;;
8139;SDS011;4111;50.972;7.072;2023-04-24T14:58:08;4.60;;;2.97;;
8139;SDS011;4111;50.972;7.072;2023-04-24T15:00:35;5.63;;;3.37;;
8139;SDS011;4111;50.972;7.072;2023-04-24T15:03:02;6.10;;;3.10;;
8139;SDS011;4111;50.972;7.072;2023-04-24T15:05:28;7.83;;;3.30;;
8139;SDS011;4111;50.972;7.072;2023-04-24T15:07:56;4.00;;;2.60;;
8139;SDS011;4111;50.972;7.072;2023-04-24T15:10:23;5.80;;;2.73;;
8139;SDS011;4111;50.972;7.072;2023-04-24T15:12:51;5.47;;;2.77;;
8139;SDS011;4111;50.972;7.072;2023-04-24T15:15:17;5.30;;;2.90;;
8139;SDS011;4111;50.972;7.072;2023-04-24T15:17:44;5.77;;;2.90;;
8139;SDS011;4111;50.972;7.072;2023-04-24T15:20:11;4.23;;;3.07;;
8139;SDS011;4111;50.972;7.072;2023-04-24T15:22:37;6.70;;;2.80;;
8139;SDS011;4111;50.972;7.072;2023-04-24T15:25:04;5.43;;;3.07;;
8139;SDS011;4111;50.972;7.072;2023-04-24T15:27:44;3.27;;;2.63;;